createdAt,value
2017-08-05T00:00:03.061Z,19.70
2017-08-05T00:02:30.322Z,19.50
2017-08-05T00:04:56.870Z,19.60
2017-08-05T00:07:23.393Z,19.50
2017-08-05T00:09:49.881Z,19.60
2017-08-05T00:12:16.462Z,19.60
2017-08-05T00:14:42.957Z,19.60
2017-08-05T00:17:09.523Z,19.50
2017-08-05T00:19:36.097Z,19.50
2017-08-05T00:22:02.614Z,19.40
2017-08-05T00:24:29.146Z,19.50
2017-08-05T00:26:55.638Z,19.50
2017-08-05T00:29:22.151Z,19.50
2017-08-05T00:31:48.690Z,19.50
2017-08-05T00:34:15.223Z,19.50
2017-08-05T00:36:41.708Z,19.30
2017-08-05T00:39:08.250Z,19.40
2017-08-05T00:41:34.656Z,19.30
2017-08-05T00:44:01.366Z,19.40
2017-08-05T00:46:28.270Z,18.80
2017-08-05T00:48:55.586Z,19.30
2017-08-05T00:51:22.107Z,19.30
2017-08-05T00:53:48.665Z,19.30
2017-08-05T00:56:16.265Z,19.30
2017-08-05T00:58:42.766Z,19.30
2017-08-05T01:01:09.291Z,19.20
2017-08-05T01:03:35.825Z,19.10
2017-08-05T01:06:02.324Z,19.20
2017-08-05T01:08:28.790Z,19.20
2017-08-05T01:10:55.430Z,18.70
2017-08-05T01:13:22.222Z,19.10
2017-08-05T01:15:48.720Z,19.10
2017-08-05T01:18:15.235Z,19.10
2017-08-05T01:20:42.412Z,19.10
2017-08-05T01:23:08.984Z,19.10
2017-08-05T01:25:36.330Z,19.10
2017-08-05T01:28:02.844Z,18.90
2017-08-05T01:30:29.417Z,18.90
2017-08-05T01:32:56.416Z,18.80
2017-08-05T01:35:23.711Z,19.00
2017-08-05T01:37:50.207Z,19.00
2017-08-05T01:40:16.750Z,18.90
2017-08-05T01:42:43.282Z,18.90
2017-08-05T01:45:09.815Z,19.00
2017-08-05T01:47:36.346Z,18.70
2017-08-05T01:50:02.905Z,18.90
2017-08-05T01:52:29.442Z,19.00
2017-08-05T01:54:55.985Z,19.00
2017-08-05T01:57:22.441Z,18.70
2017-08-05T01:59:49.029Z,19.10
2017-08-05T02:02:15.659Z,19.10
2017-08-05T02:04:42.210Z,18.90
2017-08-05T02:07:08.710Z,19.10
2017-08-05T02:09:35.243Z,19.20
2017-08-05T02:12:02.549Z,19.30
2017-08-05T02:14:30.229Z,19.30
2017-08-05T02:16:56.769Z,19.30
2017-08-05T02:19:23.263Z,19.30
2017-08-05T02:21:49.869Z,19.40
2017-08-05T02:24:16.398Z,19.30
2017-08-05T02:26:42.948Z,19.30
2017-08-05T02:29:09.517Z,19.30
2017-08-05T02:31:36.046Z,19.30
2017-08-05T02:34:02.681Z,19.20
2017-08-05T02:36:29.942Z,19.10
2017-08-05T02:38:57.229Z,19.10
2017-08-05T02:41:23.751Z,19.10
2017-08-05T02:43:50.702Z,19.00
2017-08-05T02:46:17.035Z,19.00
2017-08-05T02:48:43.544Z,18.90
2017-08-05T02:51:10.057Z,18.90
2017-08-05T02:53:36.576Z,18.90
2017-08-05T02:56:03.205Z,18.50
2017-08-05T02:58:29.743Z,19.00
2017-08-05T03:00:56.253Z,18.70
2017-08-05T03:03:22.889Z,19.00
2017-08-05T03:05:49.398Z,18.90
2017-08-05T03:08:15.988Z,18.80
2017-08-05T03:10:42.399Z,18.60
2017-08-05T03:13:08.949Z,18.50
2017-08-05T03:15:35.445Z,18.40
2017-08-05T03:18:02.044Z,18.20
2017-08-05T03:20:28.543Z,17.90
2017-08-05T03:22:55.288Z,17.70
2017-08-05T03:25:21.797Z,17.60
2017-08-05T03:27:48.341Z,17.50
2017-08-05T03:30:14.893Z,17.30
2017-08-05T03:32:42.116Z,17.10
2017-08-05T03:35:17.389Z,17.10
2017-08-05T03:37:43.666Z,17.00
2017-08-05T03:40:09.953Z,16.90
2017-08-05T03:42:36.240Z,16.80
2017-08-05T03:45:02.651Z,16.70
2017-08-05T03:47:28.937Z,16.60
2017-08-05T03:49:55.414Z,16.60
2017-08-05T03:52:21.703Z,16.40
2017-08-05T03:54:47.977Z,16.50
2017-08-05T03:57:14.278Z,16.50
2017-08-05T03:59:41.101Z,16.30
2017-08-05T04:02:07.385Z,16.50
2017-08-05T04:04:33.676Z,16.50
2017-08-05T04:06:59.961Z,16.50
2017-08-05T04:09:26.260Z,16.60
2017-08-05T04:11:52.790Z,16.70
2017-08-05T04:14:19.293Z,16.70
2017-08-05T04:16:45.880Z,16.70
2017-08-05T04:19:12.394Z,16.80
2017-08-05T04:21:45.818Z,16.60
2017-08-05T04:24:12.135Z,16.30
2017-08-05T04:26:38.430Z,16.50
2017-08-05T04:29:04.822Z,16.50
2017-08-05T04:31:37.966Z,16.60
2017-08-05T04:34:04.235Z,16.50
2017-08-05T04:36:30.492Z,16.60
2017-08-05T04:38:57.506Z,16.60
2017-08-05T04:41:23.840Z,16.70
2017-08-05T04:46:21.435Z,16.60
2017-08-05T04:48:47.744Z,16.60
2017-08-05T04:51:14.038Z,16.80
2017-08-05T04:53:40.402Z,16.80
2017-08-05T04:56:06.830Z,16.80
2017-08-05T04:58:33.118Z,16.40
2017-08-05T05:00:59.427Z,16.60
2017-08-05T05:03:25.728Z,16.70
2017-08-05T05:05:52.001Z,16.70
2017-08-05T05:08:18.286Z,16.20
2017-08-05T05:10:44.561Z,16.40
2017-08-05T05:13:10.835Z,16.50
2017-08-05T05:15:37.117Z,16.30
2017-08-05T05:18:03.431Z,15.90
2017-08-05T05:20:29.740Z,16.20
2017-08-05T05:22:56.003Z,16.30
2017-08-05T05:25:22.312Z,16.20
2017-08-05T05:27:48.597Z,15.80
2017-08-05T05:30:14.906Z,16.30
2017-08-05T05:32:41.226Z,16.60
2017-08-05T05:35:07.485Z,16.70
2017-08-05T05:37:33.786Z,16.80
2017-08-05T05:40:00.066Z,16.50
2017-08-05T05:42:26.314Z,16.00
2017-08-05T05:44:53.445Z,16.20
2017-08-05T05:47:19.725Z,16.40
2017-08-05T05:49:45.985Z,16.40
2017-08-05T05:52:12.301Z,16.20
2017-08-05T05:54:38.590Z,16.30
2017-08-05T05:57:04.860Z,15.90
2017-08-05T05:59:31.142Z,15.80
2017-08-05T06:01:58.216Z,16.30
2017-08-05T06:04:24.547Z,16.00
2017-08-05T06:06:50.870Z,16.50
2017-08-05T06:09:17.201Z,16.00
2017-08-05T06:11:43.717Z,15.90
2017-08-05T06:14:10.234Z,16.00
2017-08-05T06:16:40.094Z,16.30
2017-08-05T06:19:06.602Z,16.50
2017-08-05T06:21:33.146Z,16.60
2017-08-05T06:24:00.146Z,16.40
2017-08-05T06:26:26.674Z,16.20
2017-08-05T06:28:53.155Z,16.20
2017-08-05T06:31:19.736Z,16.40
2017-08-05T06:33:46.391Z,16.20
2017-08-05T06:36:12.881Z,15.70
2017-08-05T06:38:39.404Z,16.20
2017-08-05T06:41:05.921Z,16.40
2017-08-05T06:43:32.372Z,16.20
2017-08-05T06:45:58.917Z,16.40
2017-08-05T06:48:25.475Z,16.30
2017-08-05T06:50:51.998Z,16.40
2017-08-05T06:53:18.523Z,16.60
2017-08-05T06:55:45.068Z,16.60
2017-08-05T06:58:11.505Z,16.40
2017-08-05T07:00:39.173Z,16.50
2017-08-05T07:03:05.680Z,16.50
2017-08-05T07:05:32.175Z,16.60
2017-08-05T07:07:58.817Z,16.40
2017-08-05T07:10:25.309Z,16.40
2017-08-05T07:12:53.205Z,16.60
2017-08-05T07:15:19.768Z,16.60
2017-08-05T07:17:46.287Z,15.80
2017-08-05T07:20:12.868Z,16.40
2017-08-05T07:22:39.345Z,16.30
2017-08-05T07:25:06.599Z,16.60
2017-08-05T07:27:33.137Z,16.50
2017-08-05T07:29:59.672Z,16.90
2017-08-05T07:32:26.247Z,16.70
2017-08-05T07:34:53.077Z,16.60
2017-08-05T07:37:19.565Z,16.50
2017-08-05T07:39:46.029Z,16.70
2017-08-05T07:42:12.519Z,16.90
2017-08-05T07:44:39.030Z,17.00
2017-08-05T07:47:05.636Z,16.50
2017-08-05T07:49:32.088Z,16.40
2017-08-05T07:51:58.594Z,16.60
2017-08-05T07:54:25.057Z,16.80
2017-08-05T07:56:51.574Z,16.40
2017-08-05T07:59:18.126Z,16.30
2017-08-05T08:01:44.670Z,16.30
2017-08-05T08:04:11.171Z,16.40
2017-08-05T08:06:37.645Z,16.20
2017-08-05T08:09:05.441Z,16.40
2017-08-05T08:11:31.908Z,16.40
2017-08-05T08:13:58.887Z,16.60
2017-08-05T08:16:25.481Z,16.70
2017-08-05T08:18:52.033Z,16.70
2017-08-05T08:21:18.519Z,16.60
2017-08-05T08:23:45.057Z,16.90
2017-08-05T08:26:12.345Z,16.50
2017-08-05T08:28:38.873Z,16.60
2017-08-05T08:31:05.376Z,16.90
2017-08-05T08:33:31.934Z,16.80
2017-08-05T08:35:58.428Z,16.50
2017-08-05T08:38:24.926Z,16.60
2017-08-05T08:40:51.459Z,16.50
2017-08-05T08:43:18.704Z,17.00
2017-08-05T08:45:46.412Z,16.90
2017-08-05T08:48:12.946Z,16.90
2017-08-05T08:50:39.454Z,16.80
2017-08-05T08:53:05.892Z,16.70
2017-08-05T08:55:32.409Z,16.80
2017-08-05T08:57:58.933Z,16.80
2017-08-05T09:00:26.246Z,16.70
2017-08-05T09:02:52.771Z,16.70
2017-08-05T09:05:19.324Z,16.90
2017-08-05T09:07:45.834Z,16.90
2017-08-05T09:10:12.680Z,17.00
2017-08-05T09:12:39.195Z,17.30
2017-08-05T09:15:05.777Z,17.30
2017-08-05T09:17:32.249Z,17.00
2017-08-05T09:19:58.784Z,17.20
2017-08-05T09:22:26.009Z,17.50
2017-08-05T09:24:52.601Z,17.60
2017-08-05T09:27:19.233Z,17.80
2017-08-05T09:29:45.689Z,17.80
2017-08-05T09:32:12.581Z,17.80
2017-08-05T09:34:39.116Z,17.70
2017-08-05T09:37:05.610Z,17.70
2017-08-05T09:39:32.839Z,17.80
2017-08-05T09:41:59.345Z,17.80
2017-08-05T09:44:25.830Z,17.90
2017-08-05T09:46:52.331Z,17.90
2017-08-05T09:49:18.840Z,17.90
2017-08-05T09:51:45.355Z,18.10
2017-08-05T09:54:11.913Z,18.20
2017-08-05T09:56:38.521Z,18.30
2017-08-05T09:59:05.040Z,18.20
2017-08-05T10:01:31.525Z,18.30
2017-08-05T10:03:58.044Z,18.20
2017-08-05T10:06:24.548Z,18.10
2017-08-05T10:08:51.054Z,18.10
2017-08-05T10:11:17.576Z,18.10
2017-08-05T10:13:44.138Z,18.10
2017-08-05T10:16:10.638Z,18.10
2017-08-05T10:18:37.151Z,18.00
2017-08-05T10:21:03.656Z,18.10
2017-08-05T10:23:30.150Z,18.00
2017-08-05T10:26:01.572Z,18.10
2017-08-05T10:28:28.026Z,18.00
2017-08-05T10:30:54.498Z,18.00
2017-08-05T10:33:22.561Z,18.00
2017-08-05T10:35:53.745Z,18.00
2017-08-05T10:38:20.342Z,18.10
2017-08-05T10:40:46.990Z,18.10
2017-08-05T10:43:13.850Z,18.20
2017-08-05T10:45:40.317Z,18.10
2017-08-05T10:48:06.862Z,17.90
2017-08-05T10:50:33.346Z,17.90
2017-08-05T10:52:59.790Z,18.00
2017-08-05T10:55:28.498Z,17.90
2017-08-05T10:57:55.032Z,17.70
2017-08-05T11:00:27.552Z,17.70
2017-08-05T11:02:54.815Z,17.40
2017-08-05T11:05:21.273Z,17.40
2017-08-05T11:07:47.750Z,17.50
2017-08-05T11:10:14.233Z,17.60
2017-08-05T11:12:41.569Z,17.90
2017-08-05T11:15:09.259Z,17.90
2017-08-05T11:17:35.798Z,18.00
2017-08-05T11:20:02.358Z,17.80
2017-08-05T11:22:28.879Z,17.70
2017-08-05T11:24:55.350Z,17.70
2017-08-05T11:27:21.857Z,17.80
2017-08-05T11:29:50.018Z,18.00
2017-08-05T11:32:16.429Z,18.10
2017-08-05T11:34:42.921Z,18.10
2017-08-05T11:37:09.707Z,18.10
2017-08-05T11:39:36.221Z,18.20
2017-08-05T11:42:02.689Z,18.20
2017-08-05T11:44:30.083Z,18.30
2017-08-05T11:46:56.653Z,18.30
2017-08-05T11:49:24.094Z,18.40
2017-08-05T11:51:55.086Z,18.40
2017-08-05T11:54:21.588Z,18.50
2017-08-05T11:56:48.087Z,18.60
2017-08-05T11:59:14.602Z,18.60
2017-08-05T12:01:41.150Z,18.50
2017-08-05T12:04:07.638Z,18.50
2017-08-05T12:06:34.109Z,18.50
2017-08-05T12:09:01.402Z,18.40
2017-08-05T12:11:28.369Z,18.40
2017-08-05T12:13:54.845Z,18.40
2017-08-05T12:16:23.683Z,18.40
2017-08-05T12:18:50.242Z,18.40
2017-08-05T12:21:16.719Z,18.30
2017-08-05T12:23:43.234Z,18.30
2017-08-05T12:26:10.947Z,18.20
2017-08-05T12:28:37.439Z,18.10
2017-08-05T12:31:03.949Z,18.10
2017-08-05T12:33:32.609Z,17.90
2017-08-05T12:35:59.107Z,17.90
2017-08-05T12:38:25.675Z,17.80
2017-08-05T12:40:52.457Z,17.70
2017-08-05T12:43:19.288Z,17.80
2017-08-05T12:45:45.895Z,18.30
2017-08-05T12:48:12.420Z,18.60
2017-08-05T12:50:38.934Z,18.70
2017-08-05T12:53:06.205Z,18.90
2017-08-05T12:55:33.468Z,19.20
2017-08-05T12:57:59.978Z,19.20
2017-08-05T13:00:26.593Z,19.20
2017-08-05T13:02:53.303Z,19.40
2017-08-05T13:05:19.832Z,19.50
2017-08-05T13:07:46.481Z,19.50
2017-08-05T13:10:13.010Z,19.40
2017-08-05T13:12:39.526Z,19.30
2017-08-05T13:15:06.063Z,19.60
2017-08-05T13:17:32.598Z,19.40
2017-08-05T13:19:59.922Z,19.70
2017-08-05T13:22:26.441Z,19.70
2017-08-05T13:24:52.917Z,19.80
2017-08-05T13:27:21.070Z,20.10
2017-08-05T13:29:47.535Z,20.20
2017-08-05T13:32:14.022Z,20.20
2017-08-05T13:34:40.578Z,19.80
2017-08-05T13:37:07.069Z,19.80
2017-08-05T13:39:33.543Z,19.70
2017-08-05T13:42:00.033Z,19.50
2017-08-05T13:44:27.265Z,19.30
2017-08-05T13:46:53.760Z,19.30
2017-08-05T13:49:20.277Z,19.30
2017-08-05T13:51:46.749Z,19.10
2017-08-05T13:54:13.461Z,19.20
2017-08-05T13:56:40.278Z,19.30
2017-08-05T13:59:07.274Z,19.40
2017-08-05T14:01:33.880Z,19.70
2017-08-05T14:04:00.576Z,20.10
2017-08-05T14:06:28.165Z,20.50
2017-08-05T14:08:54.741Z,20.40
2017-08-05T14:11:21.201Z,20.70
2017-08-05T14:13:47.705Z,20.90
2017-08-05T14:16:14.224Z,21.10
2017-08-05T14:18:40.769Z,21.40
2017-08-05T14:21:07.315Z,21.60
2017-08-05T14:23:34.695Z,22.10
2017-08-05T14:26:01.251Z,22.00
2017-08-05T14:28:31.275Z,22.10
2017-08-05T14:30:59.030Z,22.10
2017-08-05T14:33:25.587Z,22.00
2017-08-05T14:35:52.070Z,21.80
2017-08-05T14:38:18.548Z,21.60
2017-08-05T14:40:45.070Z,21.30
2017-08-05T14:43:15.175Z,21.20
2017-08-05T14:45:41.665Z,21.20
2017-08-05T14:48:08.332Z,21.40
2017-08-05T14:50:34.861Z,21.60
2017-08-05T14:53:01.515Z,21.70
2017-08-05T14:55:28.834Z,21.90
2017-08-05T14:57:56.257Z,21.90
2017-08-05T15:00:24.000Z,21.70
2017-08-05T15:02:50.744Z,21.80
2017-08-05T15:05:17.261Z,21.50
2017-08-05T15:07:43.747Z,21.40
2017-08-05T15:10:11.806Z,20.90
2017-08-05T15:12:38.399Z,20.80
2017-08-05T15:15:04.937Z,20.80
2017-08-05T15:17:31.446Z,20.80
2017-08-05T15:19:57.946Z,20.70
2017-08-05T15:22:24.502Z,20.60
2017-08-05T15:24:50.983Z,20.50
2017-08-05T15:27:17.513Z,20.50
2017-08-05T15:29:44.130Z,20.50
2017-08-05T15:32:11.135Z,20.00
2017-08-05T15:34:37.652Z,19.70
2017-08-05T15:37:04.174Z,19.20
2017-08-05T15:39:30.719Z,18.50
2017-08-05T15:41:57.286Z,18.20
2017-08-05T15:44:23.804Z,18.00
2017-08-05T15:46:50.361Z,17.70
2017-08-05T15:49:17.665Z,17.60
2017-08-05T15:51:44.285Z,17.60
2017-08-05T15:54:14.073Z,17.40
2017-08-05T15:56:40.634Z,17.50
2017-08-05T15:59:19.503Z,17.60
2017-08-05T16:01:46.022Z,17.50
2017-08-05T16:04:14.306Z,17.50
2017-08-05T16:06:40.786Z,17.60
2017-08-05T16:09:07.286Z,17.60
2017-08-05T16:11:34.549Z,17.80
2017-08-05T16:14:01.117Z,17.80
2017-08-05T16:16:27.727Z,17.80
2017-08-05T16:18:57.539Z,17.80
2017-08-05T16:21:23.968Z,17.80
2017-08-05T16:23:51.550Z,18.00
2017-08-05T16:26:18.131Z,18.10
2017-08-05T16:28:44.597Z,18.00
2017-08-05T16:31:11.133Z,18.00
2017-08-05T16:33:41.251Z,18.10
2017-08-05T16:36:07.765Z,18.20
2017-08-05T16:38:34.260Z,18.10
2017-08-05T16:41:00.927Z,18.40
2017-08-05T16:43:27.503Z,18.10
2017-08-05T16:45:55.186Z,18.20
2017-08-05T16:48:23.098Z,18.40
2017-08-05T16:50:49.617Z,18.40
2017-08-05T16:53:16.137Z,18.50
2017-08-05T16:55:42.665Z,18.50
2017-08-05T16:58:09.182Z,18.60
2017-08-05T17:00:35.711Z,18.60
2017-08-05T17:03:02.366Z,18.50
2017-08-05T17:05:28.873Z,18.60
2017-08-05T17:07:58.769Z,18.60
2017-08-05T17:10:25.334Z,18.60
2017-08-05T17:12:51.770Z,18.70
2017-08-05T17:15:18.305Z,18.80
2017-08-05T17:17:44.796Z,18.80
2017-08-05T17:20:12.016Z,18.90
2017-08-05T17:22:42.969Z,18.90
2017-08-05T17:25:09.526Z,18.90
2017-08-05T17:27:35.991Z,18.80
2017-08-05T17:30:02.636Z,18.80
2017-08-05T17:32:29.136Z,18.40
2017-08-05T17:34:55.685Z,18.80
2017-08-05T17:37:22.236Z,18.80
2017-08-05T17:39:48.709Z,18.80
2017-08-05T17:42:19.193Z,18.70
2017-08-05T17:44:47.218Z,18.80
2017-08-05T17:47:13.682Z,18.80
2017-08-05T17:49:40.204Z,18.70
2017-08-05T17:52:07.449Z,18.70
2017-08-05T17:54:33.970Z,18.70
2017-08-05T17:57:00.454Z,18.70
2017-08-05T17:59:27.741Z,18.70
2017-08-05T18:01:57.611Z,18.70
2017-08-05T18:04:24.303Z,18.70
2017-08-05T18:06:50.779Z,18.70
2017-08-05T18:09:17.303Z,18.70
2017-08-05T18:11:43.782Z,18.70
2017-08-05T18:14:11.025Z,18.60
2017-08-05T18:16:37.413Z,18.60
2017-08-05T18:19:03.890Z,18.70
2017-08-05T18:21:33.725Z,18.70
2017-08-05T18:24:00.201Z,18.70
2017-08-05T18:26:26.755Z,18.60
2017-08-05T18:28:53.299Z,18.60
2017-08-05T18:31:19.796Z,18.50
2017-08-05T18:33:46.297Z,18.20
2017-08-05T18:36:12.809Z,18.20
2017-08-05T18:38:39.321Z,18.20
2017-08-05T18:41:09.064Z,18.30
2017-08-05T18:43:35.550Z,18.20
2017-08-05T18:46:02.120Z,18.00
2017-08-05T18:48:28.708Z,18.10
2017-08-05T18:50:55.221Z,18.10
2017-08-05T18:53:22.690Z,18.00
2017-08-05T18:55:49.200Z,18.00
2017-08-05T18:58:18.011Z,18.00
2017-08-05T19:00:45.294Z,17.90
2017-08-05T19:03:11.828Z,17.90
2017-08-05T19:05:38.309Z,17.60
2017-08-05T19:08:05.130Z,17.90
2017-08-05T19:10:31.659Z,18.00
2017-08-05T19:12:58.210Z,17.90
2017-08-05T19:15:24.733Z,17.90
2017-08-05T19:17:53.321Z,17.40
2017-08-05T19:20:19.830Z,17.80
2017-08-05T19:22:46.368Z,17.80
2017-08-05T19:25:12.887Z,17.70
2017-08-05T19:27:39.382Z,17.60
2017-08-05T19:30:05.885Z,17.50
2017-08-05T19:35:03.840Z,17.60
2017-08-05T19:37:30.381Z,17.60
2017-08-05T19:39:56.849Z,17.50
2017-08-05T19:42:23.469Z,17.50
2017-08-05T19:44:50.058Z,17.30
2017-08-05T19:47:16.619Z,17.30
2017-08-05T19:49:48.090Z,17.40
2017-08-05T19:52:14.604Z,17.20
2017-08-05T19:54:41.078Z,17.20
2017-08-05T19:57:07.570Z,17.30
2017-08-05T19:59:34.065Z,17.10
2017-08-05T20:02:00.593Z,17.20
2017-08-05T20:04:27.106Z,17.10
2017-08-05T20:06:54.358Z,17.20
2017-08-05T20:09:20.889Z,17.20
2017-08-05T20:11:48.144Z,17.20
2017-08-05T20:14:14.641Z,17.20
2017-08-05T20:16:41.293Z,17.10
2017-08-05T20:19:08.592Z,17.20
2017-08-05T20:21:40.614Z,17.20
2017-08-05T20:24:07.142Z,17.20
2017-08-05T20:26:33.668Z,17.20
2017-08-05T20:29:00.921Z,17.30
2017-08-05T20:31:28.173Z,17.20
2017-08-05T20:33:54.682Z,17.10
2017-08-05T20:36:21.186Z,17.10
2017-08-05T20:38:53.034Z,17.20
2017-08-05T20:41:19.500Z,17.30
2017-08-05T20:43:45.973Z,17.30
2017-08-05T20:46:12.450Z,17.30
2017-08-05T20:48:38.916Z,17.20
2017-08-05T20:51:05.410Z,17.20
2017-08-05T20:53:36.937Z,17.10
2017-08-05T20:56:03.439Z,17.20
2017-08-05T20:58:29.947Z,17.20
2017-08-05T21:00:56.421Z,17.20
2017-08-05T21:03:23.685Z,17.20
2017-08-05T21:05:50.186Z,17.10
2017-08-05T21:08:26.014Z,17.10
2017-08-05T21:10:52.554Z,17.10
2017-08-05T21:13:19.082Z,17.00
2017-08-05T21:15:45.554Z,17.10
2017-08-05T21:18:12.049Z,17.10
2017-08-05T21:20:38.511Z,17.10
2017-08-05T21:23:08.510Z,17.10
2017-08-05T21:25:35.740Z,17.00
2017-08-05T21:28:02.262Z,16.90
2017-08-05T21:30:28.873Z,17.00
2017-08-05T21:32:55.562Z,17.00
2017-08-05T21:35:22.070Z,16.90
2017-08-05T21:37:51.259Z,17.00
2017-08-05T21:40:17.750Z,17.10
2017-08-05T21:42:44.358Z,17.10
2017-08-05T21:45:11.784Z,17.10
2017-08-05T21:47:38.379Z,17.10
2017-08-05T21:50:04.926Z,17.20
2017-08-05T21:52:35.218Z,17.20
2017-08-05T21:55:01.868Z,17.20
2017-08-05T21:57:28.501Z,17.20
2017-08-05T21:59:54.997Z,17.20
2017-08-05T22:02:21.498Z,17.20
2017-08-05T22:04:48.002Z,17.20
2017-08-05T22:07:18.665Z,17.30
2017-08-05T22:09:45.197Z,17.30
2017-08-05T22:12:12.443Z,17.20
2017-08-05T22:14:39.708Z,17.20
2017-08-05T22:17:06.230Z,17.20
2017-08-05T22:19:32.722Z,17.10
2017-08-05T22:22:01.405Z,17.10
2017-08-05T22:24:27.882Z,17.10
2017-08-05T22:26:54.414Z,17.20
2017-08-05T22:29:20.922Z,17.20
2017-08-05T22:31:48.354Z,17.10
2017-08-05T22:34:14.837Z,17.10
2017-08-05T22:36:44.483Z,17.10
2017-08-05T22:39:10.988Z,17.10
2017-08-05T22:41:37.526Z,17.00
2017-08-05T22:44:04.807Z,16.80
2017-08-05T22:46:31.304Z,16.80
2017-08-05T22:48:58.563Z,16.90
2017-08-05T22:51:25.066Z,16.90
2017-08-05T22:53:51.578Z,16.90
2017-08-05T22:56:20.660Z,16.90
2017-08-05T22:58:47.240Z,17.00
2017-08-05T23:01:13.922Z,16.90
2017-08-05T23:03:40.442Z,16.90
2017-08-05T23:06:06.980Z,16.80
2017-08-05T23:08:33.455Z,16.80
2017-08-05T23:11:02.815Z,16.80
2017-08-05T23:13:29.425Z,16.80
2017-08-05T23:15:55.915Z,16.70
2017-08-05T23:18:23.176Z,16.70
2017-08-05T23:20:49.933Z,16.70
2017-08-05T23:25:55.493Z,16.60
2017-08-05T23:28:22.987Z,16.60
2017-08-05T23:30:49.527Z,16.60
2017-08-05T23:33:16.056Z,16.20
2017-08-05T23:35:42.591Z,16.50
2017-08-05T23:38:09.948Z,16.50
2017-08-05T23:40:39.531Z,16.60
2017-08-05T23:43:06.053Z,16.60
2017-08-05T23:45:32.658Z,16.60
2017-08-05T23:47:59.157Z,16.90
2017-08-05T23:50:26.538Z,16.40
2017-08-05T23:52:53.155Z,16.00
2017-08-05T23:55:19.679Z,16.50
2017-08-05T23:57:46.139Z,16.40
